Time;durP1;ratioP1;P1;durP2;ratioP2;P2;SDS_P1;SDS_P2;PMS_P1;PMS_P2;Temp;Humidity;BMP_temperature;BMP_pressure;BME280_temperature;BME280_humidity;BME280_pressure;Samples;Min_cycle;Max_cycle;Signal;HPM_P1;HPM_P2
2024/02/14 00:00:26;;;;;;;3.72;3.20;;;;;;;2.59;80.81;100849.97;2528175;28;20395;-80
2024/02/14 00:01:39;;;;;;;6.72;2.92;;;;;;;2.61;80.65;100848.31;2528577;28;20045;-79
2024/02/14 00:02:54;;;;;;;6.07;4.40;;;;;;;2.64;80.80;100855.25;2531436;28;20076;-80
2024/02/14 00:04:07;;;;;;;5.38;3.05;;;;;;;2.69;80.90;100856.25;2532958;28;20049;-81
2024/02/14 00:05:23;;;;;;;7.00;3.70;;;;;;;2.75;80.85;100858.97;2524496;28;20037;-82
2024/02/14 00:06:36;;;;;;;4.90;4.00;;;;;;;2.79;80.88;100859.94;2524510;28;20046;-82
2024/02/14 00:07:50;;;;;;;8.45;2.72;;;;;;;2.83;80.79;100864.31;2524685;28;20060;-80
2024/02/14 00:09:04;;;;;;;3.05;2.67;;;;;;;2.88;80.73;100860.16;2523975;28;20049;-81
2024/02/14 00:10:19;;;;;;;5.13;2.80;;;;;;;2.92;80.68;100861.09;2525025;28;20045;-82
2024/02/14 00:11:32;;;;;;;4.20;3.05;;;;;;;2.95;80.70;100868.94;2529619;28;20128;-83
2024/02/14 00:12:48;;;;;;;7.95;2.78;;;;;;;2.97;80.58;100868.16;2535540;28;20056;-80
2024/02/14 00:14:02;;;;;;;3.42;2.58;;;;;;;2.99;80.53;100866.47;2524723;28;20038;-81
2024/02/14 00:15:18;;;;;;;4.35;3.03;;;;;;;3.01;80.46;100866.50;2522898;28;20081;-80
2024/02/14 00:16:32;;;;;;;6.13;2.80;;;;;;;3.03;80.51;100867.44;2527110;28;20513;-81
2024/02/14 00:17:46;;;;;;;4.50;3.00;;;;;;;3.06;80.43;100864.91;2526434;28;20042;-79
2024/02/14 00:18:59;;;;;;;3.72;3.38;;;;;;;3.11;80.48;100859.88;2523107;28;20061;-80
2024/02/14 00:20:14;;;;;;;8.50;3.00;;;;;;;3.16;80.46;100871.19;2531204;28;20451;-80
2024/02/14 00:21:28;;;;;;;3.47;3.15;;;;;;;3.23;80.27;100870.50;2522297;28;20053;-81
2024/02/14 00:22:42;;;;;;;5.57;3.92;;;;;;;3.30;80.12;100869.81;2528326;28;20506;-81
2024/02/14 00:23:58;;;;;;;4.90;3.08;;;;;;;3.36;80.27;100876.84;2525467;28;20053;-81
2024/02/14 00:25:12;;;;;;;4.57;2.80;;;;;;;3.43;80.15;100873.56;2522546;28;20577;-81
2024/02/14 00:26:26;;;;;;;9.98;3.97;;;;;;;3.50;80.15;100876.31;2522833;28;20498;-81
2024/02/14 00:27:42;;;;;;;5.97;3.65;;;;;;;3.60;80.12;100873.97;2528398;28;20534;-81
2024/02/14 00:28:55;;;;;;;5.72;3.55;;;;;;;3.67;79.76;100875.84;2532567;28;20057;-82
2024/02/14 00:30:10;;;;;;;3.03;2.38;;;;;;;3.74;79.86;100875.13;2524567;28;20140;-80
2024/02/14 00:31:25;;;;;;;7.45;5.78;;;;;;;3.78;79.69;100876.97;2529916;28;20129;-80
2024/02/14 00:32:40;;;;;;;9.02;3.88;;;;;;;3.84;79.60;100876.22;2522534;28;20046;-80
2024/02/14 00:33:53;;;;;;;6.53;3.70;;;;;;;3.90;79.54;100863.47;2522925;28;20419;-81
2024/02/14 00:35:08;;;;;;;5.15;3.58;;;;;;;3.96;79.40;100870.47;2522512;28;20054;-80
2024/02/14 00:36:21;;;;;;;5.45;3.80;;;;;;;4.02;79.50;100871.47;2524788;28;20065;-80
2024/02/14 00:37:36;;;;;;;5.13;3.70;;;;;;;4.09;79.38;100875.06;2522434;28;20125;-80
2024/02/14 00:38:49;;;;;;;6.10;3.88;;;;;;;4.12;79.09;100872.53;2529365;28;20418;-81
2024/02/14 00:40:05;;;;;;;3.70;3.17;;;;;;;4.17;79.03;100867.47;2532261;28;20045;-80
2024/02/14 00:41:19;;;;;;;8.00;3.90;;;;;;;4.21;78.81;100866.69;2524386;28;20049;-80
2024/02/14 00:42:33;;;;;;;7.65;3.45;;;;;;;4.26;78.69;100865.06;2528717;28;20079;-80
2024/02/14 00:43:47;;;;;;;6.40;3.75;;;;;;;4.30;78.52;100867.75;2522628;28;20368;-80
2024/02/14 00:45:02;;;;;;;3.47;3.17;;;;;;;4.34;78.46;100874.72;2522532;28;20053;-81
2024/02/14 00:46:17;;;;;;;7.13;3.83;;;;;;;4.39;78.43;100861.91;2514587;28;20492;-80
2024/02/14 00:47:34;;;;;;;5.50;3.83;;;;;;;4.45;78.31;100863.75;2525436;28;20041;-81
2024/02/14 00:48:48;;;;;;;5.38;3.47;;;;;;;4.47;78.11;100860.34;2525560;28;20564;-79
2024/02/14 00:50:03;;;;;;;7.60;3.90;;;;;;;4.52;77.94;100869.06;2522635;28;20056;-79
2024/02/14 00:51:16;;;;;;;6.13;3.80;;;;;;;4.55;77.75;100869.13;2514740;28;20419;-79
2024/02/14 00:52:30;;;;;;;4.55;3.72;;;;;;;4.58;77.62;100860.53;2521867;28;20077;-81
2024/02/14 00:53:44;;;;;;;6.78;4.55;;;;;;;4.61;77.58;100857.16;2522059;28;20046;-80
2024/02/14 00:54:58;;;;;;;4.63;4.00;;;;;;;4.64;77.39;100862.38;2522900;28;20046;-79
2024/02/14 00:56:12;;;;;;;5.63;3.80;;;;;;;4.67;77.38;100859.84;2522745;28;20045;-80
2024/02/14 00:57:26;;;;;;;6.28;3.80;;;;;;;4.68;77.34;100854.72;2521426;28;20425;-79
2024/02/14 00:58:40;;;;;;;6.93;5.13;;;;;;;4.72;77.07;100855.63;2521937;28;20453;-80
2024/02/14 00:59:56;;;;;;;13.05;3.85;;;;;;;4.73;76.99;100853.09;2529290;28;20049;-80
2024/02/14 01:01:09;;;;;;;6.72;3.95;;;;;;;4.76;76.66;100849.69;2531207;28;20045;-80
2024/02/14 01:02:26;;;;;;;7.85;4.47;;;;;;;4.78;76.63;100850.59;2522663;28;20089;-79
2024/02/14 01:03:40;;;;;;;8.68;4.72;;;;;;;4.81;76.37;100848.06;2522749;28;20045;-79
2024/02/14 01:04:55;;;;;;;7.28;4.03;;;;;;;4.84;76.14;100849.81;2522503;28;20049;-80
2024/02/14 01:06:08;;;;;;;5.78;4.00;;;;;;;4.85;76.01;100839.47;2522619;28;20054;-82
2024/02/14 01:07:23;;;;;;;5.63;4.28;;;;;;;4.88;75.83;100842.16;2523215;28;20046;-81
2024/02/14 01:08:37;;;;;;;5.97;4.45;;;;;;;4.91;75.49;100841.34;2523637;28;20053;-80
2024/02/14 01:09:52;;;;;;;4.57;3.72;;;;;;;4.94;75.62;100841.38;2523605;28;20120;-80
2024/02/14 01:11:05;;;;;;;12.68;3.92;;;;;;;4.99;75.43;100847.50;2523647;28;20049;-81
2024/02/14 01:12:20;;;;;;;6.40;3.15;;;;;;;5.03;75.31;100833.75;2523611;28;20577;-81
2024/02/14 01:13:33;;;;;;;5.20;3.17;;;;;;;5.09;74.83;100840.78;2523169;28;20658;-80
2024/02/14 01:14:48;;;;;;;5.30;3.38;;;;;;;5.15;74.63;100835.69;2523640;28;20042;-80
2024/02/14 01:16:02;;;;;;;7.68;3.88;;;;;;;5.18;74.63;100841.78;2523250;28;20049;-79
2024/02/14 01:17:16;;;;;;;6.78;3.55;;;;;;;5.22;74.47;100838.41;2523634;28;20144;-80
2024/02/14 01:18:30;;;;;;;5.13;3.47;;;;;;;5.25;74.31;100838.44;2529576;28;20080;-80
2024/02/14 01:19:46;;;;;;;8.27;3.53;;;;;;;5.28;74.27;100837.63;2523648;28;20046;-79
2024/02/14 01:21:00;;;;;;;8.98;4.30;;;;;;;5.30;74.02;100842.84;2522706;28;20041;-79
2024/02/14 01:22:16;;;;;;;8.38;4.95;;;;;;;5.30;73.83;100841.13;2522797;28;20126;-79
2024/02/14 01:23:29;;;;;;;9.90;3.50;;;;;;;5.31;73.68;100835.09;2526431;28;20560;-79
2024/02/14 01:24:44;;;;;;;6.10;3.80;;;;;;;5.30;73.58;100838.53;2527399;28;20054;-78
2024/02/14 01:25:58;;;;;;;7.28;3.80;;;;;;;5.28;73.87;100836.75;2523434;28;20069;-78
2024/02/14 01:27:12;;;;;;;6.95;3.75;;;;;;;5.25;73.56;100838.44;2523555;28;20049;-78
2024/02/14 01:28:26;;;;;;;4.55;3.20;;;;;;;5.24;73.68;100831.56;2523947;28;20053;-79
2024/02/14 01:29:40;;;;;;;5.50;2.90;;;;;;;5.22;73.54;100832.38;2522940;28;20050;-79
2024/02/14 01:30:54;;;;;;;5.65;4.00;;;;;;;5.20;73.38;100831.47;2523116;28;20062;-80
2024/02/14 01:32:09;;;;;;;5.85;3.25;;;;;;;5.16;73.46;100825.38;2522879;28;20479;-80
2024/02/14 01:33:23;;;;;;;6.95;3.30;;;;;;;5.13;73.29;100821.84;2523375;28;20057;-80
2024/02/14 01:34:37;;;;;;;9.27;3.40;;;;;;;5.11;73.33;100823.53;2523538;28;20131;-79
2024/02/14 01:35:52;;;;;;;8.32;4.07;;;;;;;5.06;73.49;100820.91;2523327;28;20072;-79
2024/02/14 01:37:07;;;;;;;9.30;5.10;;;;;;;5.03;73.36;100826.00;2522457;28;20041;-78
2024/02/14 01:38:20;;;;;;;14.80;4.15;;;;;;;4.96;73.68;100819.88;2523999;28;20554;-79
2024/02/14 01:39:34;;;;;;;4.75;4.20;;;;;;;4.92;73.68;100819.78;2523215;28;20061;-78
2024/02/14 01:40:48;;;;;;;6.35;3.70;;;;;;;4.87;73.48;100813.66;2523194;28;20065;-79
2024/02/14 01:42:06;;;;;;;6.97;4.95;;;;;;;4.82;73.84;100811.00;2523378;28;20046;-79
2024/02/14 01:43:20;;;;;;;9.90;3.97;;;;;;;4.76;73.91;100806.59;2515843;28;20054;-80
2024/02/14 01:44:36;;;;;;;9.43;4.03;;;;;;;4.72;73.83;100815.13;2523236;28;20085;-80
2024/02/14 01:45:50;;;;;;;5.65;4.28;;;;;;;4.68;73.82;100803.00;2522725;28;20053;-79
2024/02/14 01:47:05;;;;;;;7.30;3.75;;;;;;;4.63;73.91;100807.22;2523352;28;20645;-80
2024/02/14 01:48:20;;;;;;;10.65;4.30;;;;;;;4.58;74.01;100806.25;2515882;28;20058;-80
2024/02/14 01:49:36;;;;;;;8.02;3.58;;;;;;;4.52;74.27;100803.59;2523101;28;20070;-79
2024/02/14 01:50:51;;;;;;;5.90;4.07;;;;;;;4.46;74.41;100795.69;2523277;28;20081;-79
2024/02/14 01:52:07;;;;;;;7.78;3.67;;;;;;;4.42;74.50;100804.25;2523081;28;20104;-80
2024/02/14 01:53:21;;;;;;;5.55;4.45;;;;;;;4.36;74.57;100803.28;2515073;28;20571;-79
2024/02/14 01:54:36;;;;;;;5.80;3.65;;;;;;;4.31;74.59;100799.75;2523071;28;20054;-79
2024/02/14 01:55:49;;;;;;;8.15;4.25;;;;;;;4.26;74.54;100801.38;2530614;28;20057;-79
2024/02/14 01:57:05;;;;;;;5.93;4.38;;;;;;;4.21;74.80;100796.94;2527092;28;20046;-79
2024/02/14 01:58:18;;;;;;;7.40;4.88;;;;;;;4.18;74.81;100800.31;2527089;28;20050;-79
2024/02/14 01:59:34;;;;;;;6.85;3.90;;;;;;;4.13;74.73;100802.84;2526295;28;20046;-79
2024/02/14 02:00:48;;;;;;;7.57;5.93;;;;;;;4.08;75.08;100799.28;2525092;28;20073;-79
2024/02/14 02:02:03;;;;;;;4.20;3.80;;;;;;;4.04;75.15;100794.03;2527754;28;20124;-80
2024/02/14 02:03:17;;;;;;;5.38;3.35;;;;;;;4.03;75.28;100794.88;2525336;28;20046;-80
2024/02/14 02:04:32;;;;;;;3.53;3.22;;;;;;;4.00;75.39;100789.63;2528366;28;20622;-78
2024/02/14 02:05:45;;;;;;;5.50;4.10;;;;;;;3.98;75.49;100796.50;2528017;28;20053;-79
2024/02/14 02:07:00;;;;;;;8.38;5.50;;;;;;;3.96;75.57;100782.69;2528822;28;20470;-78
2024/02/14 02:08:15;;;;;;;12.20;5.60;;;;;;;3.92;75.77;100780.03;2531124;28;20045;-80
2024/02/14 02:09:31;;;;;;;9.57;4.53;;;;;;;3.91;75.93;100775.69;2529995;28;20050;-82
2024/02/14 02:10:44;;;;;;;4.78;4.00;;;;;;;3.90;75.84;100775.69;2529405;28;20153;-80
2024/02/14 02:12:00;;;;;;;4.93;3.90;;;;;;;3.87;75.82;100779.06;2541220;28;20045;-80
2024/02/14 02:13:15;;;;;;;6.63;4.13;;;;;;;3.84;76.05;100778.13;2545072;28;20132;-80
2024/02/14 02:14:29;;;;;;;5.95;4.00;;;;;;;3.82;76.19;100774.63;2541651;28;20555;-80
2024/02/14 02:15:44;;;;;;;5.47;4.53;;;;;;;3.80;76.10;100778.91;2532267;28;20053;-81
2024/02/14 02:16:59;;;;;;;10.65;5.70;;;;;;;3.79;76.12;100775.44;2528190;28;20058;-82
2024/02/14 02:18:12;;;;;;;8.50;4.93;;;;;;;3.77;76.26;100771.97;2528240;28;20046;-82
2024/02/14 02:19:27;;;;;;;11.25;5.13;;;;;;;3.76;76.45;100771.94;2527887;28;20426;-81
2024/02/14 02:20:42;;;;;;;6.10;4.18;;;;;;;3.74;76.50;100766.72;2526775;28;20068;-82
2024/02/14 02:21:56;;;;;;;4.90;4.10;;;;;;;3.70;76.59;100770.09;2527297;28;20127;-82
2024/02/14 02:23:14;;;;;;;6.10;5.00;;;;;;;3.68;76.70;100771.78;2527304;28;20061;-82
2024/02/14 02:24:28;;;;;;;8.95;4.50;;;;;;;3.64;76.68;100765.69;2527453;28;20081;-82
2024/02/14 02:25:42;;;;;;;6.38;4.63;;;;;;;3.62;76.71;100758.75;2526751;28;20053;-82
2024/02/14 02:26:57;;;;;;;6.15;4.50;;;;;;;3.59;76.74;100763.81;2526887;28;20046;-82
2024/02/14 02:28:10;;;;;;;5.65;3.60;;;;;;;3.55;76.85;100757.72;2534930;28;20140;-82
2024/02/14 02:29:24;;;;;;;5.93;3.53;;;;;;;3.52;76.83;100760.25;2526334;28;20507;-82
2024/02/14 02:30:38;;;;;;;6.70;3.63;;;;;;;3.47;76.98;100756.69;2531385;28;20056;-79
2024/02/14 02:31:53;;;;;;;7.38;4.25;;;;;;;3.43;77.00;100760.94;2530330;28;20052;-79
2024/02/14 02:33:07;;;;;;;10.73;5.07;;;;;;;3.41;77.19;100764.31;2526263;28;20132;-81
2024/02/14 02:34:21;;;;;;;5.03;3.92;;;;;;;3.37;77.24;100758.19;2526478;28;20057;-83
2024/02/14 02:35:35;;;;;;;6.05;3.78;;;;;;;3.34;77.17;100760.72;2527297;28;20050;-83
2024/02/14 02:36:50;;;;;;;5.88;4.18;;;;;;;3.32;77.37;100769.25;2526576;28;20046;-83
2024/02/14 02:38:04;;;;;;;4.70;3.88;;;;;;;3.31;77.52;100770.97;2525654;28;20076;-81
2024/02/14 02:39:19;;;;;;;7.53;4.05;;;;;;;3.30;77.43;100774.38;2526564;28;20057;-80
2024/02/14 02:40:33;;;;;;;5.18;4.03;;;;;;;3.27;77.59;100774.31;2526752;28;20059;-82
2024/02/14 02:41:49;;;;;;;8.23;4.15;;;;;;;3.26;77.69;100772.56;2525800;28;20048;-80
2024/02/14 02:43:03;;;;;;;7.72;4.00;;;;;;;3.24;77.60;100779.41;2526360;28;20046;-82
2024/02/14 02:44:17;;;;;;;5.63;4.22;;;;;;;3.23;77.76;100775.94;2526024;28;20049;-80
2024/02/14 02:45:31;;;;;;;5.43;3.85;;;;;;;3.22;77.91;100781.94;2526017;28;20422;-82
2024/02/14 02:46:45;;;;;;;11.38;5.28;;;;;;;3.21;77.80;100782.78;2526245;28;20038;-81
2024/02/14 02:48:00;;;;;;;6.05;3.65;;;;;;;3.17;77.77;100773.22;2525442;28;20049;-81
2024/02/14 02:49:14;;;;;;;9.45;4.20;;;;;;;3.21;78.15;100777.63;2533269;28;20476;-80
2024/02/14 02:50:28;;;;;;;5.68;3.67;;;;;;;3.25;78.40;100782.03;2524948;28;20061;-80
2024/02/14 02:51:43;;;;;;;9.43;4.07;;;;;;;3.27;78.52;100780.31;2525026;28;20041;-80
2024/02/14 02:52:56;;;;;;;5.50;4.10;;;;;;;3.31;78.54;100786.44;2531164;28;20076;-80
2024/02/14 02:54:11;;;;;;;8.75;5.45;;;;;;;3.33;78.67;100783.88;2526476;28;20064;-79
2024/02/14 02:55:26;;;;;;;5.05;3.88;;;;;;;3.38;78.80;100785.75;2525011;28;20161;-80
2024/02/14 02:56:40;;;;;;;12.05;5.05;;;;;;;3.45;78.77;100779.88;2524521;28;20504;-79
2024/02/14 02:57:55;;;;;;;5.18;3.80;;;;;;;3.53;78.84;100774.00;2525511;28;20160;-79
2024/02/14 02:59:09;;;;;;;6.93;3.92;;;;;;;3.59;78.77;100787.03;2526202;28;20594;-79
2024/02/14 03:00:23;;;;;;;4.88;3.47;;;;;;;3.66;78.97;100783.75;2527783;28;20061;-81
2024/02/14 03:01:36;;;;;;;9.02;4.63;;;;;;;3.70;78.93;100785.59;2527268;28;20053;-82
2024/02/14 03:02:51;;;;;;;7.72;3.63;;;;;;;3.76;78.93;100783.13;2528429;28;20057;-81
2024/02/14 03:04:04;;;;;;;6.70;3.78;;;;;;;3.82;78.85;100785.84;2535118;28;20056;-82
2024/02/14 03:05:23;;;;;;;4.10;3.25;;;;;;;3.87;78.74;100783.34;2528127;28;20053;-82
2024/02/14 03:06:36;;;;;;;4.18;3.35;;;;;;;3.90;78.67;100784.28;2532869;28;20042;-83
2024/02/14 03:07:52;;;;;;;4.28;3.25;;;;;;;3.93;78.63;100776.59;2527015;28;20124;-81
2024/02/14 03:09:07;;;;;;;5.57;3.65;;;;;;;3.94;78.55;100788.66;2526593;28;20042;-83
2024/02/14 03:10:21;;;;;;;6.30;3.08;;;;;;;3.97;78.50;100785.28;2535555;28;20049;-83
2024/02/14 03:11:37;;;;;;;6.28;3.53;;;;;;;4.02;78.40;100782.78;2526882;28;20080;-84
2024/02/14 03:12:52;;;;;;;4.43;4.03;;;;;;;4.05;78.60;100788.91;2527050;28;20084;-85
2024/02/14 03:14:07;;;;;;;4.57;3.08;;;;;;;4.07;78.52;100776.88;2526655;28;20042;-80
2024/02/14 03:15:25;;;;;;;5.78;3.42;;;;;;;4.12;78.38;100782.13;2526310;28;20128;-81
2024/02/14 03:16:38;;;;;;;4.65;2.80;;;;;;;4.12;78.23;100780.41;2525902;28;20038;-81
2024/02/14 03:17:53;;;;;;;6.53;3.97;;;;;;;4.12;78.18;100780.41;2526286;28;20117;-80
2024/02/14 03:19:06;;;;;;;4.53;2.97;;;;;;;4.15;78.15;100787.34;2526596;28;20054;-81
2024/02/14 03:20:21;;;;;;;3.90;3.50;;;;;;;4.16;78.16;100786.53;2526741;28;20435;-81
2024/02/14 03:21:35;;;;;;;5.60;3.05;;;;;;;4.21;78.19;100786.59;2526110;28;20049;-80
2024/02/14 03:22:49;;;;;;;4.25;3.28;;;;;;;4.26;78.23;100787.56;2526873;28;20391;-81
2024/02/14 03:24:04;;;;;;;9.65;3.83;;;;;;;4.32;78.14;100790.28;2526281;28;20077;-81
2024/02/14 03:25:20;;;;;;;6.57;3.15;;;;;;;4.36;78.00;100790.38;2533669;28;20542;-81
2024/02/14 03:26:34;;;;;;;6.97;3.00;;;;;;;4.40;77.82;100786.13;2529225;28;20514;-81
2024/02/14 03:27:52;;;;;;;9.57;3.70;;;;;;;4.45;77.71;100794.81;2530979;28;20042;-80
2024/02/14 03:29:06;;;;;;;3.58;2.90;;;;;;;4.51;77.68;100786.31;2532928;28;20060;-79
2024/02/14 03:30:22;;;;;;;4.70;2.95;;;;;;;4.56;77.71;100784.69;2526464;28;20539;-81
2024/02/14 03:31:35;;;;;;;7.32;3.25;;;;;;;4.58;77.26;100790.75;2525643;28;20042;-80
2024/02/14 03:32:50;;;;;;;5.70;3.72;;;;;;;4.59;77.25;100788.22;2530022;28;20045;-79
2024/02/14 03:34:03;;;;;;;4.55;2.50;;;;;;;4.64;77.22;100790.00;2528415;28;20148;-81
2024/02/14 03:35:19;;;;;;;6.15;2.97;;;;;;;4.66;77.01;100790.91;2525756;28;20053;-81
2024/02/14 03:36:33;;;;;;;8.57;3.78;;;;;;;4.67;76.76;100797.78;2525785;28;20050;-79
2024/02/14 03:37:48;;;;;;;5.18;3.30;;;;;;;4.69;76.71;100798.69;2525113;28;20053;-80
2024/02/14 03:39:03;;;;;;;8.52;4.65;;;;;;;4.69;76.83;100789.22;2525747;28;20050;-79
2024/02/14 03:40:20;;;;;;;8.50;2.75;;;;;;;4.72;76.59;100791.84;2526125;28;20057;-80
2024/02/14 03:41:33;;;;;;;3.97;2.67;;;;;;;4.76;76.69;100798.84;2532042;28;20101;-80
2024/02/14 03:42:49;;;;;;;4.55;2.58;;;;;;;4.79;76.70;100783.38;2525208;28;20529;-80
2024/02/14 03:44:03;;;;;;;4.32;2.95;;;;;;;4.85;76.59;100782.59;2525774;28;20069;-81
2024/02/14 03:45:18;;;;;;;3.60;2.40;;;;;;;4.89;76.39;100788.72;2525023;28;20050;-81
2024/02/14 03:46:31;;;;;;;8.80;4.90;;;;;;;4.93;76.27;100786.22;2525643;28;20492;-80
2024/02/14 03:47:45;;;;;;;3.30;2.28;;;;;;;4.99;76.33;100788.00;2525493;28;20056;-80
2024/02/14 03:48:59;;;;;;;3.53;2.55;;;;;;;5.04;76.27;100786.38;2524677;28;20496;-79
2024/02/14 03:50:15;;;;;;;5.88;2.95;;;;;;;5.10;76.24;100783.88;2525029;28;20060;-79
2024/02/14 03:51:28;;;;;;;5.55;3.15;;;;;;;5.15;75.90;100783.94;2525094;28;20072;-80
2024/02/14 03:52:43;;;;;;;8.30;3.38;;;;;;;5.21;75.83;100791.78;2525029;28;20069;-79
2024/02/14 03:53:56;;;;;;;12.65;2.28;;;;;;;5.29;75.58;100791.91;2524310;28;20396;-79
2024/02/14 03:55:13;;;;;;;7.38;3.53;;;;;;;5.36;75.33;100786.00;2524430;28;20088;-80
2024/02/14 03:56:26;;;;;;;5.13;2.45;;;;;;;5.41;75.16;100789.50;2524263;28;20045;-79
2024/02/14 03:57:41;;;;;;;9.65;2.58;;;;;;;5.44;74.91;100781.78;2523769;28;20098;-79
2024/02/14 03:58:56;;;;;;;4.57;2.72;;;;;;;5.51;74.72;100790.53;2525418;28;20102;-79
2024/02/14 04:00:12;;;;;;;5.13;2.05;;;;;;;5.54;74.47;100788.84;2533318;28;20518;-80
2024/02/14 04:01:27;;;;;;;7.80;2.42;;;;;;;5.62;74.58;100791.53;2517430;28;20050;-79
2024/02/14 04:02:41;;;;;;;2.97;2.17;;;;;;;5.66;74.41;100795.91;2530451;28;20480;-80
2024/02/14 04:03:55;;;;;;;7.40;2.45;;;;;;;5.70;74.13;100789.91;2524728;28;20050;-80
2024/02/14 04:05:09;;;;;;;4.15;1.77;;;;;;;5.75;74.05;100790.84;2524239;28;20045;-80
2024/02/14 04:06:22;;;;;;;3.88;2.22;;;;;;;5.76;73.81;100784.84;2524216;28;20050;-81
2024/02/14 04:07:37;;;;;;;2.00;1.75;;;;;;;5.81;73.62;100792.69;2524560;28;20046;-81
2024/02/14 04:08:51;;;;;;;4.05;1.83;;;;;;;5.85;73.61;100794.44;2524104;28;20050;-80
2024/02/14 04:10:06;;;;;;;6.72;2.08;;;;;;;5.93;73.18;100792.81;2523718;28;20128;-80
2024/02/14 04:11:20;;;;;;;3.60;2.25;;;;;;;5.98;73.26;100793.78;2524349;28;20427;-80
2024/02/14 04:12:34;;;;;;;2.70;2.05;;;;;;;6.03;72.88;100791.25;2527470;28;20057;-80
2024/02/14 04:13:47;;;;;;;10.38;3.50;;;;;;;6.06;72.62;100788.69;2527281;28;20041;-81
2024/02/14 04:15:04;;;;;;;6.30;3.10;;;;;;;6.10;72.50;100788.75;2524920;28;20053;-81
2024/02/14 04:16:19;;;;;;;3.47;2.00;;;;;;;6.15;72.19;100791.41;2533826;28;20054;-81
2024/02/14 04:17:33;;;;;;;10.02;2.17;;;;;;;6.19;72.04;100793.16;2531467;28;20053;-81
2024/02/14 04:18:47;;;;;;;3.55;1.60;;;;;;;6.23;71.94;100794.06;2528833;28;20045;-80
2024/02/14 04:20:01;;;;;;;4.78;3.60;;;;;;;6.29;71.61;100792.41;2528456;28;20050;-80
2024/02/14 04:21:15;;;;;;;6.63;2.92;;;;;;;6.36;71.37;100789.91;2523690;28;20439;-81
2024/02/14 04:22:29;;;;;;;3.53;1.50;;;;;;;6.42;71.14;100796.00;2525271;28;20110;-81
2024/02/14 04:23:42;;;;;;;2.42;1.48;;;;;;;6.46;70.72;100794.31;2524819;28;20049;-80
2024/02/14 04:24:57;;;;;;;1.75;1.50;;;;;;;6.52;70.60;100791.78;2524258;28;20042;-81
2024/02/14 04:26:19;;;;;;;3.00;2.42;;;;;;;6.59;70.45;100792.72;2524469;28;20050;-82
2024/02/14 04:27:33;;;;;;;3.05;1.73;;;;;;;6.63;69.94;100790.16;2517096;28;20054;-81
2024/02/14 04:28:47;;;;;;;5.57;1.50;;;;;;;6.69;69.96;100794.56;2527567;28;20076;-81
2024/02/14 04:30:02;;;;;;;3.85;1.75;;;;;;;6.71;70.01;100790.22;2534317;28;20045;-80
2024/02/14 04:31:17;;;;;;;7.90;2.92;;;;;;;6.71;69.81;100800.59;2525792;28;20057;-81
2024/02/14 04:32:31;;;;;;;5.85;1.88;;;;;;;6.72;69.82;100803.22;2524688;28;20534;-81
2024/02/14 04:33:49;;;;;;;5.72;2.50;;;;;;;6.74;69.59;100804.13;2524053;28;20053;-81
2024/02/14 04:35:04;;;;;;;3.53;1.73;;;;;;;6.75;69.61;100798.06;2524569;28;20134;-80
2024/02/14 04:36:19;;;;;;;3.72;1.85;;;;;;;6.81;69.52;100796.38;2525078;28;20088;-80
2024/02/14 04:37:33;;;;;;;3.00;1.58;;;;;;;6.86;69.17;100797.28;2533446;28;20103;-80
2024/02/14 04:38:48;;;;;;;3.80;1.40;;;;;;;6.92;69.16;100802.56;2530445;28;20127;-80
2024/02/14 04:40:03;;;;;;;7.35;1.83;;;;;;;6.97;68.83;100806.94;2522524;28;20513;-80
2024/02/14 04:41:17;;;;;;;7.30;1.67;;;;;;;7.04;68.42;100806.97;2515561;28;20046;-81
2024/02/14 04:42:31;;;;;;;3.97;1.60;;;;;;;7.10;67.92;100805.31;2533869;28;20049;-80
2024/02/14 04:43:45;;;;;;;8.23;1.90;;;;;;;7.17;67.80;100806.19;2530543;28;20046;-79
2024/02/14 04:44:59;;;;;;;3.70;2.08;;;;;;;7.24;67.37;100808.00;2523918;28;20046;-81
2024/02/14 04:46:13;;;;;;;3.50;1.83;;;;;;;7.29;67.31;100805.44;2532579;28;20049;-83
2024/02/14 04:47:29;;;;;;;3.08;1.95;;;;;;;7.32;66.71;100795.94;2523556;28;20084;-80
2024/02/14 04:48:44;;;;;;;3.95;1.85;;;;;;;7.37;66.80;100799.44;2523892;28;20053;-81
2024/02/14 04:49:57;;;;;;;9.45;1.88;;;;;;;7.42;66.78;100797.72;2524595;28;20049;-80
2024/02/14 04:51:12;;;;;;;6.22;2.13;;;;;;;7.48;66.63;100796.03;2524720;28;20053;-79
2024/02/14 04:52:26;;;;;;;5.15;1.40;;;;;;;7.51;66.63;100796.03;2532599;28;20053;-80
2024/02/14 04:53:40;;;;;;;2.70;1.63;;;;;;;7.55;66.13;100793.50;2523815;28;20511;-80
2024/02/14 04:54:54;;;;;;;2.28;1.65;;;;;;;7.58;65.78;100793.50;2524227;28;20116;-80
2024/02/14 04:56:08;;;;;;;4.45;2.08;;;;;;;7.63;65.61;100793.53;2524003;28;20081;-80
2024/02/14 04:57:22;;;;;;;2.15;1.30;;;;;;;7.67;65.42;100784.00;2523694;28;20075;-80
2024/02/14 04:58:37;;;;;;;6.32;1.60;;;;;;;7.70;65.19;100787.53;2524078;28;20050;-81
2024/02/14 04:59:50;;;;;;;7.97;2.58;;;;;;;7.74;65.32;100778.00;2523977;28;20692;-81
2024/02/14 05:01:07;;;;;;;4.25;1.73;;;;;;;7.76;64.76;100786.69;2529997;28;20045;-80
2024/02/14 05:02:20;;;;;;;4.22;2.03;;;;;;;7.78;64.75;100784.97;2525162;28;20133;-81
2024/02/14 05:03:37;;;;;;;7.15;1.50;;;;;;;7.83;64.82;100788.44;2523992;28;20491;-81
2024/02/14 05:04:51;;;;;;;3.83;1.83;;;;;;;7.85;64.69;100787.59;2523814;28;20136;-79
2024/02/14 05:06:06;;;;;;;3.78;1.33;;;;;;;7.89;64.55;100795.41;2524019;28;20049;-80
2024/02/14 05:07:19;;;;;;;2.22;1.30;;;;;;;7.91;64.17;100788.50;2523565;28;20042;-78
2024/02/14 05:08:34;;;;;;;1.75;1.63;;;;;;;7.92;64.02;100785.88;2526222;28;20100;-79
2024/02/14 05:09:50;;;;;;;5.25;1.60;;;;;;;7.96;64.12;100791.97;2529295;28;20042;-80
2024/02/14 05:11:04;;;;;;;2.40;2.20;;;;;;;7.98;64.06;100795.44;2530559;28;20045;-79
2024/02/14 05:12:19;;;;;;;2.10;1.48;;;;;;;7.98;64.02;100795.44;2525551;28;20050;-79
2024/02/14 05:13:33;;;;;;;3.88;1.70;;;;;;;7.99;64.14;100811.03;2525772;28;20053;-80
2024/02/14 05:14:48;;;;;;;6.13;1.50;;;;;;;8.01;64.27;100800.66;2530240;28;20046;-79
2024/02/14 05:16:03;;;;;;;3.10;1.10;;;;;;;8.02;64.01;100800.66;2523799;28;20076;-80
2024/02/14 05:17:17;;;;;;;6.10;1.90;;;;;;;8.03;63.90;100801.53;2523723;28;20050;-79
2024/02/14 05:18:31;;;;;;;5.45;1.58;;;;;;;8.03;64.17;100802.41;2523822;28;20054;-79
2024/02/14 05:19:46;;;;;;;2.35;1.55;;;;;;;8.04;64.14;100798.06;2523970;28;20054;-81
2024/02/14 05:21:00;;;;;;;2.60;1.17;;;;;;;8.04;64.21;100790.28;2523399;28;20125;-81
2024/02/14 05:22:14;;;;;;;3.42;1.90;;;;;;;8.06;63.67;100798.94;2523898;28;20046;-80
2024/02/14 05:23:28;;;;;;;4.25;1.75;;;;;;;8.07;63.81;100792.88;2523770;28;20123;-80
2024/02/14 05:24:42;;;;;;;4.07;1.67;;;;;;;8.07;63.84;100793.75;2523252;28;20065;-81
2024/02/14 05:25:56;;;;;;;2.45;1.95;;;;;;;8.06;63.61;100789.41;2523457;28;20054;-79
2024/02/14 05:27:10;;;;;;;4.53;1.70;;;;;;;8.07;63.63;100785.94;2524041;28;20057;-81
2024/02/14 05:28:24;;;;;;;6.00;1.73;;;;;;;8.09;63.63;100792.03;2524767;28;20053;-79
2024/02/14 05:29:38;;;;;;;3.13;1.92;;;;;;;8.08;63.51;100789.44;2526772;28;20116;-80
2024/02/14 05:30:53;;;;;;;5.43;1.48;;;;;;;8.09;63.42;100789.41;2528145;28;20096;-79
2024/02/14 05:32:09;;;;;;;3.70;2.10;;;;;;;8.07;63.63;100785.94;2531407;28;20054;-79
2024/02/14 05:33:23;;;;;;;1.60;1.50;;;;;;;8.06;63.65;100785.94;2530201;28;20522;-79
2024/02/14 05:34:37;;;;;;;3.85;1.88;;;;;;;8.05;63.72;100787.69;2527775;28;20046;-82
2024/02/14 05:35:53;;;;;;;4.18;2.00;;;;;;;8.07;63.25;100792.88;2526018;28;20050;-81
2024/02/14 05:37:07;;;;;;;5.60;1.65;;;;;;;8.07;63.44;100782.47;2525602;28;20049;-81
2024/02/14 05:38:22;;;;;;;4.45;2.13;;;;;;;8.08;63.43;100786.84;2525888;28;20061;-81
2024/02/14 05:39:35;;;;;;;7.90;1.92;;;;;;;8.07;63.35;100790.28;2533611;28;20056;-80
2024/02/14 05:40:50;;;;;;;5.45;1.70;;;;;;;8.07;63.16;100787.69;2525648;28;20046;-80
2024/02/14 05:42:05;;;;;;;5.07;2.20;;;;;;;8.09;63.39;100793.75;2525674;28;20054;-80
2024/02/14 05:43:20;;;;;;;4.60;1.75;;;;;;;8.10;63.24;100795.47;2525799;28;20077;-81
2024/02/14 05:44:34;;;;;;;2.38;1.70;;;;;;;8.11;63.27;100799.84;2527404;28;20046;-81
2024/02/14 05:45:48;;;;;;;2.60;2.10;;;;;;;8.12;63.08;100796.38;2530899;28;20052;-81
2024/02/14 05:47:02;;;;;;;3.85;2.20;;;;;;;8.11;63.17;100797.25;2525426;28;20046;-81
2024/02/14 05:48:16;;;;;;;4.60;2.35;;;;;;;8.13;63.13;100789.44;2525223;28;20484;-81
2024/02/14 05:49:30;;;;;;;2.88;2.08;;;;;;;8.13;63.29;100786.81;2524871;28;20407;-81
2024/02/14 05:50:44;;;;;;;3.90;1.88;;;;;;;8.13;63.13;100792.91;2525093;28;20133;-80